Impacts TAF Board
For situational awareness. Not to be used for flight planning purposes.
IDs:

PABE - Bethel Arpt, AK, US

Issued at 0525 UTC 18 Jan 2022
Updated at 0959 UTC 18 Jan 2022
Potential Impact None Slight Moderate High
Time<<18/22Z 18/23Z 19/00Z 19/01Z 19/02Z 19/03Z 19/04Z 19/05Z 19/06Z 19/07Z 19/08Z 19/09Z 19/10Z>>
Type PRVL PRVL PRVL PRVL PRVL PRVL PRVL PRVL
VIS >6 >6 6 6 6 6 6 6
CIG 60 60 50 50 50 50 50 50
Cover OVC OVC OVC OVC OVC OVC OVC OVC
FltCat VFR VFR VFR VFR VFR VFR VFR VFR
WX -- -- -SN -SN -SN -SN -SN -SN
WDir 20 20 10 10 10 10 10 10
WSpd 11 11 14 14 14 14 14 14
WGst -- -- -- -- -- -- -- --
WSHgt -- -- -- -- -- -- -- --
WSDir -- -- -- -- -- -- -- --
WSSpd -- -- -- -- -- -- -- --
Raw TAF
PABE 180525Z 1806/1906 03010KT P6SM SKC
  FM181500 02011KT P6SM OVC060
  FM190000 01014KT 6SM -SN OVC050


METAR Board
Radar Display
Forecast Discussion
For situational awareness. Not to be used for flight planning purposes.